Time;durP1;ratioP1;P1;durP2;ratioP2;P2;SDS_P1;SDS_P2;PMS_P1;PMS_P2;Temp;Humidity;BMP_temperature;BMP_pressure;BME280_temperature;BME280_humidity;BME280_pressure;Samples;Min_cycle;Max_cycle;Signal;HPM_P1;HPM_P2
2022/09/30 00:00:22;;;;;;;;;;;;;;;;;;5071431;28;19917;-93
2022/09/30 00:02:47;;;;;;;;;;;;;;;;;;5069748;28;20683;-92
2022/09/30 00:05:13;;;;;;;;;;;;;;;;;;5070329;28;19974;-92
2022/09/30 00:07:38;;;;;;;;;;;;;;;;;;5069743;28;19920;-92
2022/09/30 00:10:06;;;;;;;;;;;;;;;;;;5054501;28;19917;-91
2022/09/30 00:12:31;;;;;;;;;;;;;;;;;;5069715;28;19916;-92
2022/09/30 00:14:56;;;;;;;;;;;;;;;;;;5069664;28;20006;-92
2022/09/30 00:17:22;;;;;;;;;;;;;;;;;;5055704;28;19921;-92
2022/09/30 00:19:47;;;;;;;;;;;;;;;;;;5051567;28;20427;-93
2022/09/30 00:22:13;;;;;;;;;;;;;;;;;;5049519;28;19921;-92
2022/09/30 00:24:38;;;;;;;;;;;;;;;;;;5049987;28;20048;-92
2022/09/30 00:27:04;;;;;;;;;;;;;;;;;;5049527;28;19944;-92
2022/09/30 00:29:29;;;;;;;;;;;;;;;;;;5050438;28;20269;-93
2022/09/30 00:31:55;;;;;;;;;;;;;;;;;;5049464;28;19956;-92
2022/09/30 00:34:21;;;;;;;;;;;;;;;;;;5017595;28;19916;-92
2022/09/30 00:36:47;;;;;;;;;;;;;;;;;;5036656;28;19943;-91
2022/09/30 00:39:13;;;;;;;;;;;;;;;;;;5049144;28;19955;-91
2022/09/30 00:41:39;;;;;;;;;;;;;;;;;;5033375;28;19960;-91
2022/09/30 00:44:23;;;;;;;;;;;;;;;;;;5016821;28;19925;-90
2022/09/30 00:46:49;;;;;;;;;;;;;;;;;;5016775;28;19918;-92
2022/09/30 00:49:20;;;;;;;;;;;;;;;;;;5016453;28;20320;-92
2022/09/30 00:51:47;;;;;;;;;;;;;;;;;;5015137;28;19917;-91
2022/09/30 00:54:25;;;;;;;;;;;;;;;;;;5015512;28;20387;-92
2022/09/30 00:56:56;;;;;;;;;;;;;;;;;;5016115;28;19926;-92
2022/09/30 00:59:24;;;;;;;;;;;;;;;;;;5017680;28;19930;-91
2022/09/30 01:01:49;;;;;;;;;;;;;;;;;;5034022;28;20385;-93
2022/09/30 01:04:16;;;;;;;;;;;;;;;;;;5034631;28;19971;-91
2022/09/30 01:06:42;;;;;;;;;;;;;;;;;;5015811;28;20012;-93
2022/09/30 01:09:08;;;;;;;;;;;;;;;;;;5016301;28;19921;-92
2022/09/30 01:11:34;;;;;;;;;;;;;;;;;;5016098;28;19917;-93
2022/09/30 01:14:01;;;;;;;;;;;;;;;;;;5015857;28;19917;-93
2022/09/30 01:16:26;;;;;;;;;;;;;;;;;;5020275;28;19932;-92
2022/09/30 01:18:55;;;;;;;;;;;;;;;;;;5032500;28;19917;-92
2022/09/30 01:21:23;;;;;;;;;;;;;;;;;;5018013;28;19924;-91
2022/09/30 01:23:55;;;;;;;;;;;;;;;;;;5015628;28;20027;-92
2022/09/30 01:26:44;;;;;;;;;;;;;;;;;;5016054;28;19951;-91
2022/09/30 01:29:28;;;;;;;;;;;;;;;;;;5017060;28;20295;-91
2022/09/30 01:32:01;;;;;;;;;;;;;;;;;;5015813;28;19925;-91
2022/09/30 01:34:36;;;;;;;;;;;;;;;;;;5015692;28;19924;-91
2022/09/30 01:37:02;;;;;;;;;;;;;;;;;;5016679;28;20357;-91
2022/09/30 01:39:36;;;;;;;;;;;;;;;;;;5017039;28;19921;-92
2022/09/30 01:42:05;;;;;;;;;;;;;;;;;;5016353;28;19947;-93
2022/09/30 01:44:34;;;;;;;;;;;;;;;;;;5016857;28;19923;-92
2022/09/30 01:46:59;;;;;;;;;;;;;;;;;;5032595;28;19956;-93
2022/09/30 01:49:28;;;;;;;;;;;;;;;;;;5034063;28;19928;-92
2022/09/30 01:52:11;;;;;;;;;;;;;;;;;;5032316;28;19917;-91
2022/09/30 01:54:47;;;;;;;;;;;;;;;;;;5015819;28;19917;-91
2022/09/30 01:57:26;;;;;;;;;;;;;;;;;;5016166;28;19988;-91
2022/09/30 01:59:51;;;;;;;;;;;;;;;;;;5032519;28;19921;-92
2022/09/30 02:02:24;;;;;;;;;;;;;;;;;;5034386;28;20387;-91
2022/09/30 02:04:56;;;;;;;;;;;;;;;;;;5035778;28;19924;-90
2022/09/30 02:07:28;;;;;;;;;;;;;;;;;;5016327;28;19921;-91
2022/09/30 02:09:59;;;;;;;;;;;;;;;;;;5035481;28;19917;-91
2022/09/30 02:12:26;;;;;;;;;;;;;;;;;;5015859;28;19917;-91
2022/09/30 02:14:56;;;;;;;;;;;;;;;;;;5020372;28;19928;-91
2022/09/30 02:17:25;;;;;;;;;;;;;;;;;;5019030;28;19925;-91
2022/09/30 02:19:59;;;;;;;;;;;;;;;;;;5019644;28;19924;-92
2022/09/30 02:22:27;;;;;;;;;;;;;;;;;;5037420;28;19924;-92
2022/09/30 02:25:00;;;;;;;;;;;;;;;;;;5019456;28;19924;-91
2022/09/30 02:27:33;;;;;;;;;;;;;;;;;;5036833;28;20483;-94
2022/09/30 02:30:02;;;;;;;;;;;;;;;;;;5037942;28;19924;-92
2022/09/30 02:32:34;;;;;;;;;;;;;;;;;;5018959;28;19921;-93
2022/09/30 02:35:02;;;;;;;;;;;;;;;;;;5019768;28;19956;-93
2022/09/30 02:37:34;;;;;;;;;;;;;;;;;;5020351;28;19968;-92
2022/09/30 02:40:09;;;;;;;;;;;;;;;;;;5031269;28;19905;-91
2022/09/30 02:42:36;;;;;;;;;;;;;;;;;;5029964;28;19925;-92
2022/09/30 02:45:07;;;;;;;;;;;;;;;;;;5023691;28;19944;-90
2022/09/30 02:47:50;;;;;;;;;;;;;;;;;;5022653;28;19924;-92
2022/09/30 02:50:34;;;;;;;;;;;;;;;;;;5027271;28;19928;-92
2022/09/30 02:53:13;;;;;;;;;;;;;;;;;;5020280;28;19928;-92
2022/09/30 02:55:49;;;;;;;;;;;;;;;;;;5019669;28;19925;-92
2022/09/30 02:58:16;;;;;;;;;;;;;;;;;;5019983;28;19986;-92
2022/09/30 03:00:41;;;;;;;;;;;;;;;;;;5036524;28;19924;-92
2022/09/30 03:03:13;;;;;;;;;;;;;;;;;;5018915;28;19917;-91
2022/09/30 03:05:39;;;;;;;;;;;;;;;;;;5020102;28;20291;-93
2022/09/30 03:08:04;;;;;;;;;;;;;;;;;;5036689;28;19917;-90
2022/09/30 03:10:30;;;;;;;;;;;;;;;;;;5019447;28;19921;-91
2022/09/30 03:13:03;;;;;;;;;;;;;;;;;;5036154;28;19932;-92
2022/09/30 03:15:44;;;;;;;;;;;;;;;;;;5018588;28;20364;-93
2022/09/30 03:18:27;;;;;;;;;;;;;;;;;;5019140;28;20280;-92
2022/09/30 03:21:11;;;;;;;;;;;;;;;;;;5019351;28;19924;-91
2022/09/30 03:24:02;;;;;;;;;;;;;;;;;;5019249;28;19929;-94
2022/09/30 03:26:46;;;;;;;;;;;;;;;;;;5022896;28;19921;-93
2022/09/30 03:29:14;;;;;;;;;;;;;;;;;;5021354;28;20334;-93
2022/09/30 03:31:49;;;;;;;;;;;;;;;;;;5036580;28;19917;-93
2022/09/30 03:34:36;;;;;;;;;;;;;;;;;;5018306;28;19983;-92
2022/09/30 03:37:10;;;;;;;;;;;;;;;;;;4989168;28;20007;-93
2022/09/30 03:39:51;;;;;;;;;;;;;;;;;;5020151;28;19924;-93
2022/09/30 03:42:17;;;;;;;;;;;;;;;;;;5020679;28;19921;-92
2022/09/30 03:44:51;;;;;;;;;;;;;;;;;;5020921;28;20371;-91
2022/09/30 03:47:18;;;;;;;;;;;;;;;;;;5024646;28;19943;-92
2022/09/30 03:49:49;;;;;;;;;;;;;;;;;;5018585;28;20359;-91
2022/09/30 03:52:15;;;;;;;;;;;;;;;;;;5018200;28;19964;-93
2022/09/30 03:54:45;;;;;;;;;;;;;;;;;;5030153;28;19917;-91
2022/09/30 03:57:10;;;;;;;;;;;;;;;;;;5025255;28;20432;-93
2022/09/30 03:59:36;;;;;;;;;;;;;;;;;;5019373;28;19968;-92
2022/09/30 04:02:03;;;;;;;;;;;;;;;;;;5017559;28;19917;-93
2022/09/30 04:04:29;;;;;;;;;;;;;;;;;;5017632;28;20356;-91
2022/09/30 04:06:54;;;;;;;;;;;;;;;;;;5018958;28;20019;-92
2022/09/30 04:09:19;;;;;;;;;;;;;;;;;;5017647;28;19956;-92
2022/09/30 04:11:45;;;;;;;;;;;;;;;;;;5017633;28;19963;-92
2022/09/30 04:14:10;;;;;;;;;;;;;;;;;;5035132;28;19917;-92
2022/09/30 04:16:36;;;;;;;;;;;;;;;;;;5016286;28;19925;-91
2022/09/30 04:19:01;;;;;;;;;;;;;;;;;;5016927;28;19990;-91
2022/09/30 04:21:33;;;;;;;;;;;;;;;;;;5039029;28;19921;-90
2022/09/30 04:23:59;;;;;;;;;;;;;;;;;;5018410;28;20016;-90
2022/09/30 04:26:26;;;;;;;;;;;;;;;;;;5016242;28;19967;-92
2022/09/30 04:28:52;;;;;;;;;;;;;;;;;;5038195;28;19917;-89
2022/09/30 04:31:19;;;;;;;;;;;;;;;;;;5021324;28;19925;-91
2022/09/30 04:33:46;;;;;;;;;;;;;;;;;;5016553;28;19982;-89
2022/09/30 04:36:12;;;;;;;;;;;;;;;;;;5034113;28;20289;-88
2022/09/30 04:38:38;;;;;;;;;;;;;;;;;;5033491;28;19918;-90
2022/09/30 04:41:06;;;;;;;;;;;;;;;;;;5034029;28;20426;-90
2022/09/30 04:43:33;;;;;;;;;;;;;;;;;;5033990;28;20015;-90
2022/09/30 04:45:58;;;;;;;;;;;;;;;;;;5045051;28;19924;-91
2022/09/30 04:48:29;;;;;;;;;;;;;;;;;;5049831;28;19923;-90
2022/09/30 04:50:54;;;;;;;;;;;;;;;;;;5033234;28;19917;-89
2022/09/30 04:53:19;;;;;;;;;;;;;;;;;;5046906;28;19952;-90
2022/09/30 04:55:45;;;;;;;;;;;;;;;;;;5028628;28;19924;-91
2022/09/30 04:58:11;;;;;;;;;;;;;;;;;;5047999;28;19917;-90
2022/09/30 05:00:36;;;;;;;;;;;;;;;;;;5048019;28;19925;-90
2022/09/30 05:03:02;;;;;;;;;;;;;;;;;;5045657;28;19928;-91
2022/09/30 05:05:27;;;;;;;;;;;;;;;;;;5031257;28;19917;-91
2022/09/30 05:07:59;;;;;;;;;;;;;;;;;;5014064;28;19967;-89
2022/09/30 05:10:25;;;;;;;;;;;;;;;;;;5027366;28;19925;-89
2022/09/30 05:12:51;;;;;;;;;;;;;;;;;;5046097;28;19940;-90
2022/09/30 05:15:17;;;;;;;;;;;;;;;;;;5032280;28;19921;-91
2022/09/30 05:17:44;;;;;;;;;;;;;;;;;;5033014;28;19927;-90
2022/09/30 05:20:11;;;;;;;;;;;;;;;;;;5031142;28;19944;-91
2022/09/30 05:22:38;;;;;;;;;;;;;;;;;;5046001;28;19944;-91
2022/09/30 05:25:09;;;;;;;;;;;;;;;;;;5030043;28;19918;-90
2022/09/30 05:27:36;;;;;;;;;;;;;;;;;;5046767;28;19917;-89
2022/09/30 05:30:02;;;;;;;;;;;;;;;;;;5013150;28;19921;-89
2022/09/30 05:32:27;;;;;;;;;;;;;;;;;;5046400;28;19971;-92
2022/09/30 05:34:54;;;;;;;;;;;;;;;;;;5048802;28;20364;-91
2022/09/30 05:37:22;;;;;;;;;;;;;;;;;;5047808;28;19918;-91
2022/09/30 05:39:47;;;;;;;;;;;;;;;;;;5047801;28;19917;-91
2022/09/30 05:42:13;;;;;;;;;;;;;;;;;;5047529;28;19924;-89
2022/09/30 05:47:42;;;;;;;;;;;;;;;;;;5030333;28;19925;-88
2022/09/30 05:50:11;;;;;;;;;;;;;;;;;;5056254;28;19984;-93
2022/09/30 05:52:37;;;;;;;;;;;;;;;;;;5037337;28;19952;-92
2022/09/30 05:55:04;;;;;;;;;;;;;;;;;;5051549;28;19924;-94
2022/09/30 05:57:36;;;;;;;;;;;;;;;;;;5048020;28;19921;-92
2022/09/30 06:00:05;;;;;;;;;;;;;;;;;;5044969;28;19917;-92
2022/09/30 06:02:37;;;;;;;;;;;;;;;;;;5027774;28;19921;-93
2022/09/30 06:05:05;;;;;;;;;;;;;;;;;;5050844;28;19917;-93
2022/09/30 06:07:58;;;;;;;;;;;;;;;;;;5050542;28;19968;-93
2022/09/30 06:10:27;;;;;;;;;;;;;;;;;;5031360;28;19939;-94
2022/09/30 06:13:12;;;;;;;;;;;;;;;;;;5046458;28;19917;-94
2022/09/30 06:15:40;;;;;;;;;;;;;;;;;;5050138;28;19925;-94
2022/09/30 06:18:07;;;;;;;;;;;;;;;;;;5050885;28;19980;-94
2022/09/30 06:20:33;;;;;;;;;;;;;;;;;;5029968;28;19921;-91
2022/09/30 06:23:01;;;;;;;;;;;;;;;;;;5048916;28;19917;-95
2022/09/30 06:25:29;;;;;;;;;;;;;;;;;;5044179;28;20328;-93
2022/09/30 06:27:55;;;;;;;;;;;;;;;;;;5045172;28;19917;-95
2022/09/30 06:41:59;;;;;;;;;;;;;;;;;;5364263;22;19921;-93
2022/09/30 06:44:25;;;;;;;;;;;;;;;;;;5049218;28;20035;-93
2022/09/30 06:46:52;;;;;;;;;;;;;;;;;;5052734;28;19942;-93
2022/09/30 06:49:19;;;;;;;;;;;;;;;;;;5019289;28;19953;-92
2022/09/30 06:52:04;;;;;;;;;;;;;;;;;;5046632;28;19924;-92
2022/09/30 06:55:01;;;;;;;;;;;;;;;;;;5041915;28;19921;-92
2022/09/30 06:57:46;;;;;;;;;;;;;;;;;;5043839;28;19924;-90
2022/09/30 07:00:31;;;;;;;;;;;;;;;;;;5045136;28;19924;-93
2022/09/30 07:02:57;;;;;;;;;;;;;;;;;;5062374;28;19917;-93
2022/09/30 07:05:24;;;;;;;;;;;;;;;;;;5025908;28;19925;-92
2022/09/30 07:07:51;;;;;;;;;;;;;;;;;;5026801;28;19921;-92
2022/09/30 07:10:18;;;;;;;;;;;;;;;;;;5042606;28;19929;-91
2022/09/30 07:12:50;;;;;;;;;;;;;;;;;;5041118;28;19925;-88
2022/09/30 07:15:18;;;;;;;;;;;;;;;;;;5044072;28;19924;-86
2022/09/30 07:17:49;;;;;;;;;;;;;;;;;;5063051;28;19999;-90
2022/09/30 07:20:14;;;;;;;;;;;;;;;;;;5047527;28;20399;-92
2022/09/30 07:22:43;;;;;;;;;;;;;;;;;;5063153;28;19967;-91
2022/09/30 07:25:10;;;;;;;;;;;;;;;;;;5064733;28;19923;-92
2022/09/30 07:27:37;;;;;;;;;;;;;;;;;;5064177;28;19916;-91
2022/09/30 07:30:04;;;;;;;;;;;;;;;;;;5057600;28;19917;-90
2022/09/30 07:32:30;;;;;;;;;;;;;;;;;;5039323;28;19916;-89
2022/09/30 07:34:56;;;;;;;;;;;;;;;;;;5036803;28;19970;-91
2022/09/30 07:37:22;;;;;;;;;;;;;;;;;;5039978;28;20272;-90
2022/09/30 07:39:48;;;;;;;;;;;;;;;;;;5039611;28;19917;-94
2022/09/30 07:42:20;;;;;;;;;;;;;;;;;;5037439;28;19928;-90
2022/09/30 07:44:45;;;;;;;;;;;;;;;;;;5063618;28;19917;-89
2022/09/30 07:47:11;;;;;;;;;;;;;;;;;;5057858;28;19923;-91
2022/09/30 07:49:38;;;;;;;;;;;;;;;;;;5058253;28;19924;-93
2022/09/30 07:52:03;;;;;;;;;;;;;;;;;;5064842;28;19921;-93
2022/09/30 07:54:30;;;;;;;;;;;;;;;;;;5059300;28;19962;-92
2022/09/30 07:56:56;;;;;;;;;;;;;;;;;;5059804;28;19924;-93
2022/09/30 07:59:22;;;;;;;;;;;;;;;;;;5059260;28;20712;-93
2022/09/30 08:01:48;;;;;;;;;;;;;;;;;;5055785;28;19967;-93
2022/09/30 08:04:14;;;;;;;;;;;;;;;;;;5060541;28;19963;-92
2022/09/30 08:06:45;;;;;;;;;;;;;;;;;;5039914;28;20008;-91
2022/09/30 08:09:11;;;;;;;;;;;;;;;;;;5044807;28;19921;-93
2022/09/30 08:11:37;;;;;;;;;;;;;;;;;;5040889;28;19917;-93
2022/09/30 08:14:03;;;;;;;;;;;;;;;;;;5065407;28;19921;-92
2022/09/30 08:16:31;;;;;;;;;;;;;;;;;;5058277;28;20360;-93
2022/09/30 08:19:00;;;;;;;;;;;;;;;;;;5045806;28;19979;-93
2022/09/30 08:21:26;;;;;;;;;;;;;;;;;;5065527;28;19917;-91
2022/09/30 08:23:51;;;;;;;;;;;;;;;;;;5067635;28;19919;-92
2022/09/30 08:26:47;;;;;;;;;;;;;;;;;;5065055;28;20375;-92
2022/09/30 08:29:23;;;;;;;;;;;;;;;;;;5059337;28;19917;-93
2022/09/30 08:31:53;;;;;;;;;;;;;;;;;;5069923;28;19917;-93
2022/09/30 08:34:19;;;;;;;;;;;;;;;;;;5067900;28;19976;-93
2022/09/30 08:36:45;;;;;;;;;;;;;;;;;;5063068;28;19924;-92
2022/09/30 08:39:15;;;;;;;;;;;;;;;;;;5066134;28;19917;-93
2022/09/30 08:42:06;;;;;;;;;;;;;;;;;;5069555;28;19920;-93
2022/09/30 08:44:42;;;;;;;;;;;;;;;;;;5050366;28;19920;-93
2022/09/30 08:47:28;;;;;;;;;;;;;;;;;;5066897;28;19980;-93
2022/09/30 08:50:00;;;;;;;;;;;;;;;;;;5065031;28;19921;-93
2022/09/30 08:52:32;;;;;;;;;;;;;;;;;;5063492;28;20418;-93
2022/09/30 08:54:58;;;;;;;;;;;;;;;;;;5065291;28;19928;-93
2022/09/30 08:57:30;;;;;;;;;;;;;;;;;;5067138;28;19964;-91
2022/09/30 08:59:59;;;;;;;;;;;;;;;;;;5065911;28;19916;-93
2022/09/30 09:02:54;;;;;;;;;;;;;;;;;;5064573;28;19956;-92
2022/09/30 09:05:39;;;;;;;;;;;;;;;;;;5045238;28;19917;-93
2022/09/30 09:08:11;;;;;;;;;;;;;;;;;;5029713;28;19921;-94
2022/09/30 09:10:42;;;;;;;;;;;;;;;;;;5018996;28;19917;-92
2022/09/30 09:13:18;;;;;;;;;;;;;;;;;;5015416;28;19921;-93
2022/09/30 09:16:03;;;;;;;;;;;;;;;;;;5016566;28;20032;-92
2022/09/30 09:18:35;;;;;;;;;;;;;;;;;;5017358;28;19917;-91
2022/09/30 09:21:09;;;;;;;;;;;;;;;;;;5030701;28;20423;-89
2022/09/30 09:23:35;;;;;;;;;;;;;;;;;;5057682;28;20368;-93
2022/09/30 09:26:02;;;;;;;;;;;;;;;;;;5061475;28;19940;-93
2022/09/30 09:28:34;;;;;;;;;;;;;;;;;;5059609;28;19917;-90
2022/09/30 09:31:00;;;;;;;;;;;;;;;;;;5060085;28;19952;-92
2022/09/30 09:33:35;;;;;;;;;;;;;;;;;;5059331;28;20012;-90
2022/09/30 09:36:07;;;;;;;;;;;;;;;;;;5042788;28;20011;-87
2022/09/30 09:38:51;;;;;;;;;;;;;;;;;;5043076;28;19929;-93
2022/09/30 09:41:17;;;;;;;;;;;;;;;;;;5042343;28;20090;-93
2022/09/30 09:43:44;;;;;;;;;;;;;;;;;;5058997;28;20371;-93
2022/09/30 09:46:18;;;;;;;;;;;;;;;;;;5061332;28;20363;-92
2022/09/30 09:48:43;;;;;;;;;;;;;;;;;;5066159;28;19920;-91
2022/09/30 09:51:17;;;;;;;;;;;;;;;;;;5065802;28;19923;-94
2022/09/30 09:53:47;;;;;;;;;;;;;;;;;;5067241;28;19921;-93
2022/09/30 09:56:17;;;;;;;;;;;;;;;;;;5064863;28;20284;-93
2022/09/30 09:59:02;;;;;;;;;;;;;;;;;;5067639;22;19925;-91
2022/09/30 10:01:32;;;;;;;;;;;;;;;;;;5061810;28;20190;-92
2022/09/30 10:04:18;;;;;;;;;;;;;;;;;;5060875;28;19917;-92
2022/09/30 10:06:46;;;;;;;;;;;;;;;;;;5060640;28;19927;-93
2022/09/30 10:09:30;;;;;;;;;;;;;;;;;;5042683;28;19924;-90
2022/09/30 10:12:05;;;;;;;;;;;;;;;;;;5061855;28;20011;-92
2022/09/30 10:14:35;;;;;;;;;;;;;;;;;;5060086;28;19971;-90
2022/09/30 10:17:01;;;;;;;;;;;;;;;;;;5064593;28;19967;-92
2022/09/30 10:19:28;;;;;;;;;;;;;;;;;;5058758;28;19917;-91
2022/09/30 10:22:10;;;;;;;;;;;;;;;;;;5066742;28;20129;-89
2022/09/30 10:24:37;;;;;;;;;;;;;;;;;;5076303;28;19921;-89
2022/09/30 10:27:03;;;;;;;;;;;;;;;;;;5066022;28;19936;-91
2022/09/30 10:29:30;;;;;;;;;;;;;;;;;;5076219;28;19912;-89
2022/09/30 10:31:57;;;;;;;;;;;;;;;;;;5068686;28;19925;-89
2022/09/30 10:34:26;;;;;;;;;;;;;;;;;;5057757;28;19970;-88
2022/09/30 10:36:52;;;;;;;;;;;;;;;;;;5054854;28;19928;-89
2022/09/30 10:39:26;;;;;;;;;;;;;;;;;;5055591;28;19924;-90
2022/09/30 10:42:02;;;;;;;;;;;;;;;;;;5055438;28;19920;-90
2022/09/30 10:44:28;;;;;;;;;;;;;;;;;;5056044;28;19924;-91
2022/09/30 10:46:58;;;;;;;;;;;;;;;;;;5054764;28;19916;-88
2022/09/30 10:49:28;;;;;;;;;;;;;;;;;;5054868;28;19924;-89
2022/09/30 10:51:57;;;;;;;;;;;;;;;;;;5055460;28;20326;-90
2022/09/30 10:54:33;;;;;;;;;;;;;;;;;;5055360;28;19921;-90
2022/09/30 10:57:02;;;;;;;;;;;;;;;;;;5055437;28;19983;-90
2022/09/30 10:59:33;;;;;;;;;;;;;;;;;;5055230;28;19928;-89
2022/09/30 11:02:19;;;;;;;;;;;;;;;;;;5055446;28;19924;-89
2022/09/30 11:05:05;;;;;;;;;;;;;;;;;;5016576;28;19924;-89
2022/09/30 11:08:03;;;;;;;;;;;;;;;;;;5047338;28;19917;-88
2022/09/30 11:10:37;;;;;;;;;;;;;;;;;;5032771;28;20016;-89
2022/09/30 11:13:02;;;;;;;;;;;;;;;;;;5038738;28;19971;-90
2022/09/30 11:15:31;;;;;;;;;;;;;;;;;;5055616;28;20337;-89
2022/09/30 11:17:56;;;;;;;;;;;;;;;;;;5055653;28;19999;-89
2022/09/30 11:20:25;;;;;;;;;;;;;;;;;;5054632;28;20415;-88
2022/09/30 11:22:51;;;;;;;;;;;;;;;;;;5060264;28;19939;-89
2022/09/30 11:25:18;;;;;;;;;;;;;;;;;;5043497;28;19917;-89
2022/09/30 11:27:48;;;;;;;;;;;;;;;;;;5062873;28;20425;-90
2022/09/30 11:30:14;;;;;;;;;;;;;;;;;;5060704;28;19917;-88
2022/09/30 11:32:42;;;;;;;;;;;;;;;;;;5059042;28;19980;-88
2022/09/30 11:35:26;;;;;;;;;;;;;;;;;;5040172;28;20348;-90
2022/09/30 11:38:09;;;;;;;;;;;;;;;;;;5058451;28;20372;-91
2022/09/30 11:40:45;;;;;;;;;;;;;;;;;;5058272;28;19920;-90
2022/09/30 11:43:29;;;;;;;;;;;;;;;;;;5060152;28;19921;-90
2022/09/30 11:45:54;;;;;;;;;;;;;;;;;;5037721;28;19963;-89
2022/09/30 11:48:36;;;;;;;;;;;;;;;;;;5059953;28;19916;-89
2022/09/30 11:51:15;;;;;;;;;;;;;;;;;;5057134;28;19917;-90
2022/09/30 11:53:46;;;;;;;;;;;;;;;;;;5056097;28;19917;-92
2022/09/30 11:56:11;;;;;;;;;;;;;;;;;;5038833;28;19951;-92
2022/09/30 11:58:40;;;;;;;;;;;;;;;;;;5055023;28;19925;-91
2022/09/30 12:01:21;;;;;;;;;;;;;;;;;;5038907;28;19917;-91
2022/09/30 12:04:05;;;;;;;;;;;;;;;;;;5037924;28;20391;-91
2022/09/30 12:06:51;;;;;;;;;;;;;;;;;;5057816;28;19917;-91
2022/09/30 12:09:29;;;;;;;;;;;;;;;;;;5055835;28;20380;-89
2022/09/30 12:12:01;;;;;;;;;;;;;;;;;;5055943;28;19920;-91
2022/09/30 12:14:30;;;;;;;;;;;;;;;;;;5035999;28;19940;-90
2022/09/30 12:16:56;;;;;;;;;;;;;;;;;;5054070;28;19917;-90
2022/09/30 12:19:26;;;;;;;;;;;;;;;;;;5054104;28;20019;-90
2022/09/30 12:21:58;;;;;;;;;;;;;;;;;;5055741;28;19917;-91
2022/09/30 12:24:34;;;;;;;;;;;;;;;;;;5059682;28;20288;-90
2022/09/30 12:27:01;;;;;;;;;;;;;;;;;;5057597;28;20403;-90
2022/09/30 12:32:18;;;;;;;;;;;;;;;;;;5057424;28;19923;-91
2022/09/30 12:35:03;;;;;;;;;;;;;;;;;;5058040;28;20312;-91
2022/09/30 12:37:28;;;;;;;;;;;;;;;;;;5054542;28;19916;-91
2022/09/30 12:40:00;;;;;;;;;;;;;;;;;;5053926;28;19931;-90
2022/09/30 12:42:25;;;;;;;;;;;;;;;;;;5053414;28;19924;-92
2022/09/30 12:45:08;;;;;;;;;;;;;;;;;;5053908;28;19917;-92
2022/09/30 12:47:47;;;;;;;;;;;;;;;;;;5053547;28;19976;-90
2022/09/30 12:50:18;;;;;;;;;;;;;;;;;;5053447;28;19963;-91
2022/09/30 12:52:43;;;;;;;;;;;;;;;;;;5053315;28;19924;-91
2022/09/30 12:55:21;;;;;;;;;;;;;;;;;;5054264;28;19917;-92
2022/09/30 12:57:47;;;;;;;;;;;;;;;;;;5053425;28;19920;-93
2022/09/30 13:00:15;;;;;;;;;;;;;;;;;;5035779;28;20281;-92
2022/09/30 13:02:42;;;;;;;;;;;;;;;;;;5054669;28;19924;-92
2022/09/30 13:05:40;;;;;;;;;;;;;;;;;;5054800;28;19987;-91
2022/09/30 13:08:08;;;;;;;;;;;;;;;;;;5029932;28;20452;-91
2022/09/30 13:10:33;;;;;;;;;;;;;;;;;;5053230;28;20429;-91
2022/09/30 13:13:15;;;;;;;;;;;;;;;;;;5052842;28;19921;-90
2022/09/30 13:15:42;;;;;;;;;;;;;;;;;;5035333;28;20422;-92
2022/09/30 13:18:19;;;;;;;;;;;;;;;;;;5053208;28;19920;-93
2022/09/30 13:20:50;;;;;;;;;;;;;;;;;;5054368;28;19952;-90
2022/09/30 13:23:34;;;;;;;;;;;;;;;;;;5054932;28;19921;-90
2022/09/30 13:26:00;;;;;;;;;;;;;;;;;;5035626;28;20291;-91
2022/09/30 13:28:28;;;;;;;;;;;;;;;;;;5052480;28;20004;-91
2022/09/30 13:31:19;;;;;;;;;;;;;;;;;;5052727;28;19970;-91
2022/09/30 13:33:45;;;;;;;;;;;;;;;;;;5053146;28;19920;-91
2022/09/30 13:36:23;;;;;;;;;;;;;;;;;;5053055;28;19924;-90
2022/09/30 13:39:04;;;;;;;;;;;;;;;;;;5053009;28;19927;-91
2022/09/30 13:41:31;;;;;;;;;;;;;;;;;;5052652;28;19974;-90
2022/09/30 13:44:01;;;;;;;;;;;;;;;;;;5052870;28;19917;-91
2022/09/30 13:46:45;;;;;;;;;;;;;;;;;;5053476;28;20392;-90
2022/09/30 13:49:31;;;;;;;;;;;;;;;;;;5052685;28;20046;-92
2022/09/30 13:51:57;;;;;;;;;;;;;;;;;;5053227;28;19923;-92
2022/09/30 13:54:30;;;;;;;;;;;;;;;;;;5035266;28;19921;-90
2022/09/30 13:56:56;;;;;;;;;;;;;;;;;;5052897;28;20292;-92
2022/09/30 13:59:41;;;;;;;;;;;;;;;;;;5035491;28;19921;-91
2022/09/30 14:02:06;;;;;;;;;;;;;;;;;;5054127;28;19917;-92
2022/09/30 14:04:34;;;;;;;;;;;;;;;;;;5055762;28;19917;-90
2022/09/30 14:07:13;;;;;;;;;;;;;;;;;;5070614;28;19940;-90
2022/09/30 14:09:56;;;;;;;;;;;;;;;;;;5068816;28;19931;-92
2022/09/30 14:12:31;;;;;;;;;;;;;;;;;;5062209;28;19928;-93
2022/09/30 14:15:03;;;;;;;;;;;;;;;;;;5040155;28;19916;-93
2022/09/30 14:17:48;;;;;;;;;;;;;;;;;;5057088;28;19944;-93
2022/09/30 14:20:28;;;;;;;;;;;;;;;;;;5056766;28;19920;-92
2022/09/30 14:22:53;;;;;;;;;;;;;;;;;;5056639;28;19978;-92
2022/09/30 14:25:22;;;;;;;;;;;;;;;;;;5056536;28;20007;-92
2022/09/30 14:28:08;;;;;;;;;;;;;;;;;;5038472;28;19916;-93
2022/09/30 14:30:39;;;;;;;;;;;;;;;;;;5055500;28;19924;-92
2022/09/30 14:33:20;;;;;;;;;;;;;;;;;;5038089;28;19921;-93
2022/09/30 14:35:48;;;;;;;;;;;;;;;;;;5056282;28;19971;-93
2022/09/30 14:38:17;;;;;;;;;;;;;;;;;;5056109;28;19917;-93
2022/09/30 14:40:47;;;;;;;;;;;;;;;;;;5055942;28;19921;-92
2022/09/30 14:43:15;;;;;;;;;;;;;;;;;;5055785;28;19924;-93
2022/09/30 14:45:42;;;;;;;;;;;;;;;;;;5038183;28;19917;-93
2022/09/30 14:48:28;;;;;;;;;;;;;;;;;;5056293;28;20295;-93
2022/09/30 14:51:03;;;;;;;;;;;;;;;;;;5055835;28;19913;-93
2022/09/30 14:53:33;;;;;;;;;;;;;;;;;;5055930;28;19917;-92
2022/09/30 14:55:59;;;;;;;;;;;;;;;;;;5038310;28;19917;-94
2022/09/30 14:58:27;;;;;;;;;;;;;;;;;;5056105;28;19925;-91
2022/09/30 15:00:59;;;;;;;;;;;;;;;;;;5038790;28;19920;-92
2022/09/30 15:03:25;;;;;;;;;;;;;;;;;;5055709;28;19975;-93
2022/09/30 15:05:51;;;;;;;;;;;;;;;;;;5038865;28;20368;-92
2022/09/30 15:08:18;;;;;;;;;;;;;;;;;;5056955;28;19924;-93
2022/09/30 15:10:51;;;;;;;;;;;;;;;;;;5059665;28;19921;-93
2022/09/30 15:13:17;;;;;;;;;;;;;;;;;;5062527;28;19923;-92
2022/09/30 15:15:43;;;;;;;;;;;;;;;;;;5061688;28;19917;-93
2022/09/30 15:18:24;;;;;;;;;;;;;;;;;;5060132;28;19916;-93
2022/09/30 15:20:55;;;;;;;;;;;;;;;;;;5057493;28;20003;-93
2022/09/30 15:23:24;;;;;;;;;;;;;;;;;;5039928;28;19933;-93
2022/09/30 15:25:50;;;;;;;;;;;;;;;;;;5055374;28;19917;-92
2022/09/30 15:28:16;;;;;;;;;;;;;;;;;;5055426;28;19940;-93
2022/09/30 15:30:42;;;;;;;;;;;;;;;;;;5058868;28;19917;-93
2022/09/30 15:33:12;;;;;;;;;;;;;;;;;;5058752;28;19971;-94
2022/09/30 15:35:38;;;;;;;;;;;;;;;;;;5058157;28;20439;-94
2022/09/30 15:38:29;;;;;;;;;;;;;;;;;;5056655;28;19959;-92
2022/09/30 15:40:59;;;;;;;;;;;;;;;;;;5055477;28;19920;-92
2022/09/30 15:43:33;;;;;;;;;;;;;;;;;;5058823;28;19924;-93
2022/09/30 15:46:14;;;;;;;;;;;;;;;;;;5058563;28;19938;-92
2022/09/30 15:48:43;;;;;;;;;;;;;;;;;;5058554;28;19917;-94
2022/09/30 15:51:22;;;;;;;;;;;;;;;;;;5060575;28;19917;-91
2022/09/30 15:53:48;;;;;;;;;;;;;;;;;;5057317;28;19980;-91
2022/09/30 15:56:17;;;;;;;;;;;;;;;;;;5058798;28;19917;-92
2022/09/30 15:58:56;;;;;;;;;;;;;;;;;;5056931;28;19921;-93
2022/09/30 16:01:23;;;;;;;;;;;;;;;;;;5057089;28;19964;-92
2022/09/30 16:03:54;;;;;;;;;;;;;;;;;;5058806;28;19917;-93
2022/09/30 16:06:37;;;;;;;;;;;;;;;;;;5065457;28;19920;-95
2022/09/30 16:09:05;;;;;;;;;;;;;;;;;;5063256;28;19924;-93
2022/09/30 16:11:36;;;;;;;;;;;;;;;;;;5058492;28;20396;-94
2022/09/30 16:14:09;;;;;;;;;;;;;;;;;;5062784;28;19924;-94
2022/09/30 16:16:38;;;;;;;;;;;;;;;;;;5057683;28;20307;-94
2022/09/30 16:19:04;;;;;;;;;;;;;;;;;;5056879;28;19920;-94
2022/09/30 16:21:42;;;;;;;;;;;;;;;;;;5057090;28;20291;-93
2022/09/30 16:24:19;;;;;;;;;;;;;;;;;;5055949;28;20435;-93
2022/09/30 16:26:45;;;;;;;;;;;;;;;;;;5038214;28;19932;-94
2022/09/30 16:29:11;;;;;;;;;;;;;;;;;;5055455;28;19917;-93
2022/09/30 16:31:36;;;;;;;;;;;;;;;;;;5036985;28;20433;-93
2022/09/30 16:34:02;;;;;;;;;;;;;;;;;;5060886;28;19943;-95
2022/09/30 16:36:27;;;;;;;;;;;;;;;;;;5063515;28;19917;-93
2022/09/30 16:38:52;;;;;;;;;;;;;;;;;;5057161;28;19916;-93
2022/09/30 16:41:18;;;;;;;;;;;;;;;;;;5040506;28;19923;-94
2022/09/30 16:43:43;;;;;;;;;;;;;;;;;;5039280;28;20007;-93
2022/09/30 16:46:09;;;;;;;;;;;;;;;;;;5059798;28;19923;-94
2022/09/30 16:48:34;;;;;;;;;;;;;;;;;;5060277;28;19921;-93
2022/09/30 16:51:13;;;;;;;;;;;;;;;;;;5054731;28;19916;-93
2022/09/30 16:53:39;;;;;;;;;;;;;;;;;;5055869;28;19916;-94
2022/09/30 16:56:04;;;;;;;;;;;;;;;;;;5060845;28;19923;-93
2022/09/30 16:58:30;;;;;;;;;;;;;;;;;;5041667;28;19920;-94
2022/09/30 17:00:59;;;;;;;;;;;;;;;;;;5056435;28;19917;-94
2022/09/30 17:03:25;;;;;;;;;;;;;;;;;;5057034;28;19920;-94
2022/09/30 17:05:51;;;;;;;;;;;;;;;;;;5047514;28;19964;-92
2022/09/30 17:08:18;;;;;;;;;;;;;;;;;;5071136;28;19917;-93
2022/09/30 17:10:45;;;;;;;;;;;;;;;;;;5049986;28;20365;-93
2022/09/30 17:13:15;;;;;;;;;;;;;;;;;;5045678;28;19917;-92
2022/09/30 17:15:41;;;;;;;;;;;;;;;;;;5042806;28;19921;-93
2022/09/30 17:18:08;;;;;;;;;;;;;;;;;;5044852;28;19941;-92
2022/09/30 17:20:34;;;;;;;;;;;;;;;;;;5044159;28;19925;-92
2022/09/30 17:23:02;;;;;;;;;;;;;;;;;;5052064;28;19923;-93
2022/09/30 17:25:28;;;;;;;;;;;;;;;;;;5063025;28;19976;-92
2022/09/30 17:27:56;;;;;;;;;;;;;;;;;;5066927;28;19921;-92